Time;durP1;ratioP1;P1;durP2;ratioP2;P2;SDS_P1;SDS_P2;PMS_P1;PMS_P2;Temp;Humidity;BMP_temperature;BMP_pressure;BME280_temperature;BME280_humidity;BME280_pressure;Samples;Min_cycle;Max_cycle;Signal;HPM_P1;HPM_P2
2021/05/23 00:02:05;;;;;;;0.50;0.10;;;;;;;16.28;67.18;100058.47;4918809;28;127502;-61
2021/05/23 00:04:31;;;;;;;0.60;0.10;;;;;;;16.29;67.27;100061.97;4886476;28;99124;-65
2021/05/23 00:06:57;;;;;;;0.65;0.10;;;;;;;16.24;67.27;100073.00;4919335;28;112364;-65
2021/05/23 00:09:24;;;;;;;1.10;0.10;;;;;;;16.23;67.09;100071.38;4920623;28;106661;-61
2021/05/23 00:11:50;;;;;;;1.00;0.10;;;;;;;16.19;67.36;100072.03;4923125;28;98087;-65
2021/05/23 00:14:18;;;;;;;0.85;0.10;;;;;;;16.16;67.16;100075.38;4920068;28;112168;-65
2021/05/23 00:16:44;;;;;;;0.57;0.10;;;;;;;16.15;67.46;100076.50;4901990;28;121556;-62
2021/05/23 00:19:10;;;;;;;1.00;0.10;;;;;;;16.12;67.79;100085.28;4921818;28;105991;-65
2021/05/23 00:21:36;;;;;;;0.30;0.10;;;;;;;16.09;67.65;100085.09;4923115;28;98437;-65
2021/05/23 00:24:03;;;;;;;1.08;0.10;;;;;;;16.08;67.92;100089.72;4918689;28;105126;-61
2021/05/23 00:26:29;;;;;;;0.47;0.00;;;;;;;16.07;67.72;100092.75;4885187;28;109480;-65
2021/05/23 00:28:55;;;;;;;0.63;0.10;;;;;;;16.03;68.24;100092.56;4904397;28;128230;-62
2021/05/23 00:31:21;;;;;;;0.50;0.10;;;;;;;15.99;68.16;100090.78;4896780;28;128974;-62
2021/05/23 00:33:47;;;;;;;0.20;0.10;;;;;;;16.00;68.02;100086.97;4922896;28;102360;-61
2021/05/23 00:36:13;;;;;;;0.88;0.10;;;;;;;15.96;68.13;100094.94;4921442;28;128399;-65
2021/05/23 00:38:40;;;;;;;0.85;0.10;;;;;;;15.94;68.04;100092.53;4921090;28;127531;-62
2021/05/23 00:41:06;;;;;;;0.57;0.10;;;;;;;15.91;68.24;100100.50;4899542;28;98128;-61
2021/05/23 00:43:32;;;;;;;0.73;0.10;;;;;;;15.87;68.41;100104.94;4916917;28;98188;-62
2021/05/23 00:45:58;;;;;;;1.10;0.10;;;;;;;15.87;68.65;100105.75;4911850;28;130238;-61
2021/05/23 00:48:24;;;;;;;1.02;0.10;;;;;;;15.86;68.57;100104.16;4922461;28;98220;-61
2021/05/23 00:50:51;;;;;;;0.50;0.10;;;;;;;15.82;68.85;100096.94;4904066;28;113205;-62
2021/05/23 00:53:17;;;;;;;1.40;0.10;;;;;;;15.82;68.47;100097.75;4888945;28;98001;-61
2021/05/23 00:55:43;;;;;;;0.40;0.10;;;;;;;15.78;68.32;100101.41;4903789;28;119017;-62
2021/05/23 00:58:09;;;;;;;0.60;0.10;;;;;;;15.81;68.41;100106.22;4903904;28;98634;-61
2021/05/23 01:00:42;;;;;;;0.80;0.10;;;;;;;15.72;68.18;100106.16;4904160;28;97875;-65
2021/05/23 01:03:31;;;;;;;1.70;0.10;;;;;;;15.68;68.19;100105.97;4906844;28;99167;-62
2021/05/23 01:06:05;;;;;;;0.32;0.10;;;;;;;15.67;68.60;100107.06;4913929;28;98363;-65
2021/05/23 01:08:33;;;;;;;0.50;0.10;;;;;;;15.67;68.60;100098.91;4903610;28;98835;-64
2021/05/23 01:11:17;;;;;;;1.13;0.10;;;;;;;15.62;68.62;100104.47;4902279;28;113577;-65
2021/05/23 01:13:59;;;;;;;1.00;0.10;;;;;;;15.59;68.46;100102.34;4904776;28;98603;-65
2021/05/23 01:16:51;;;;;;;0.60;0.10;;;;;;;15.60;68.51;100108.59;4921875;28;98053;-61
2021/05/23 01:19:22;;;;;;;;;;;;;;;15.51;68.70;100113.97;4918399;28;105861;-64
2021/05/23 01:22:17;;;;;;;0.35;0.05;;;;;;;15.47;68.37;100113.78;4897462;28;97946;-61
2021/05/23 01:25:04;;;;;;;0.45;0.10;;;;;;;15.47;68.76;100116.50;4893865;28;100622;-65
2021/05/23 01:27:36;;;;;;;0.57;0.10;;;;;;;15.47;68.97;100118.41;4910683;28;98723;-65
2021/05/23 01:30:08;;;;;;;0.30;0.10;;;;;;;15.46;68.89;100111.38;4922115;28;98380;-61
2021/05/23 01:32:40;;;;;;;0.65;0.10;;;;;;;15.43;68.64;100112.78;4920842;28;97967;-62
2021/05/23 01:35:11;;;;;;;0.57;0.10;;;;;;;15.41;68.97;100115.03;4922353;28;98076;-64
2021/05/23 01:37:37;;;;;;;0.60;0.10;;;;;;;15.39;69.01;100119.16;4921924;28;98597;-62
2021/05/23 01:40:04;;;;;;;0.50;0.10;;;;;;;15.39;68.51;100116.44;4901541;28;128818;-65
2021/05/23 01:42:34;;;;;;;0.80;0.10;;;;;;;15.38;68.84;100118.34;4913272;28;116320;-65
2021/05/23 01:45:00;;;;;;;0.28;0.05;;;;;;;15.39;68.61;100113.72;4876917;28;103754;-62
2021/05/23 01:47:26;;;;;;;0.98;0.08;;;;;;;15.38;68.94;100120.25;4891846;28;105919;-65
2021/05/23 01:49:52;;;;;;;0.50;0.10;;;;;;;15.36;68.64;100120.56;4871056;28;106815;-61
2021/05/23 01:52:18;;;;;;;0.32;0.00;;;;;;;15.33;68.63;100115.75;4874699;28;127438;-61
2021/05/23 01:54:44;;;;;;;0.40;0.10;;;;;;;15.33;68.68;100118.47;4903180;28;98064;-61
2021/05/23 01:57:10;;;;;;;1.23;0.10;;;;;;;15.32;68.68;100113.34;4868564;28;112068;-61
2021/05/23 01:59:39;;;;;;;0.55;0.10;;;;;;;15.29;68.66;100128.34;4901352;28;127378;-65
2021/05/23 02:02:06;;;;;;;0.20;0.10;;;;;;;15.29;68.95;100131.06;4909199;28;126965;-65
2021/05/23 02:04:32;;;;;;;0.85;0.10;;;;;;;15.30;68.48;100129.94;4914299;28;117301;-65
2021/05/23 02:06:58;;;;;;;0.43;0.10;;;;;;;15.25;68.75;100121.09;4869253;28;128561;-65
2021/05/23 02:09:24;;;;;;;0.30;0.00;;;;;;;15.23;68.50;100118.69;4875898;28;98710;-61
2021/05/23 02:11:55;;;;;;;1.20;0.10;;;;;;;15.20;68.72;100109.25;4883550;28;127186;-65
2021/05/23 02:14:21;;;;;;;0.30;0.10;;;;;;;15.19;68.83;100121.22;4907804;28;97742;-61
2021/05/23 02:16:47;;;;;;;0.40;0.00;;;;;;;15.16;68.72;100116.41;4917774;28;97794;-65
2021/05/23 02:19:13;;;;;;;0.75;0.10;;;;;;;15.15;68.76;100116.72;4927608;28;110713;-65
2021/05/23 02:21:39;;;;;;;0.30;0.00;;;;;;;15.12;68.91;100117.31;4912612;28;127064;-62
2021/05/23 02:24:06;;;;;;;0.80;0.10;;;;;;;15.09;68.76;100113.31;4908749;28;104340;-65
2021/05/23 02:26:32;;;;;;;0.93;0.10;;;;;;;15.07;68.71;100120.94;4912864;28;114546;-61
2021/05/23 02:28:58;;;;;;;0.50;0.10;;;;;;;15.07;69.16;100114.72;4926646;28;127469;-61
2021/05/23 02:31:24;;;;;;;0.90;0.10;;;;;;;15.05;68.66;100119.63;4914355;28;127612;-65
2021/05/23 02:33:50;;;;;;;0.60;0.10;;;;;;;15.03;69.02;100114.53;4908699;28;117117;-65
2021/05/23 02:36:16;;;;;;;0.45;0.10;;;;;;;15.00;69.15;100120.56;4914635;28;128521;-64
2021/05/23 02:38:42;;;;;;;0.68;0.10;;;;;;;14.99;69.39;100124.38;4921923;28;127657;-61
2021/05/23 02:41:08;;;;;;;0.30;0.10;;;;;;;15.03;69.10;100128.09;4926355;28;127710;-61
2021/05/23 02:43:34;;;;;;;0.50;0.10;;;;;;;15.07;68.47;100112.81;4928334;28;97975;-61
2021/05/23 02:46:03;;;;;;;0.73;0.10;;;;;;;15.12;68.34;100120.81;4926941;28;128675;-65
2021/05/23 02:48:29;;;;;;;0.68;0.10;;;;;;;15.16;68.58;100118.31;4920651;28;98769;-65
2021/05/23 02:50:55;;;;;;;0.50;0.10;;;;;;;15.16;68.33;100118.31;4889573;28;118610;-65
2021/05/23 02:53:21;;;;;;;0.60;0.10;;;;;;;15.16;68.03;100118.31;4907170;28;97902;-64
2021/05/23 02:55:48;;;;;;;0.50;0.08;;;;;;;15.17;67.87;100117.22;4889682;28;114121;-65
2021/05/23 02:58:15;;;;;;;0.40;0.10;;;;;;;15.16;67.96;100110.16;4909312;28;98341;-64
2021/05/23 03:00:42;;;;;;;0.60;0.10;;;;;;;15.13;68.15;100114.31;4908444;28;99111;-61
2021/05/23 03:03:09;;;;;;;0.43;0.10;;;;;;;15.13;68.00;100116.19;4928361;28;97881;-62
2021/05/23 03:05:35;;;;;;;0.60;0.10;;;;;;;15.11;67.92;100111.09;4909371;28;98302;-65
2021/05/23 03:08:01;;;;;;;0.68;0.10;;;;;;;15.12;67.81;100115.41;4892525;28;125772;-62
2021/05/23 03:10:36;;;;;;;1.48;0.10;;;;;;;15.09;67.68;100118.75;4876157;28;127428;-65
2021/05/23 03:13:04;;;;;;;1.35;0.10;;;;;;;15.08;68.00;100119.03;4910557;28;98013;-62
2021/05/23 03:15:31;;;;;;;0.75;0.10;;;;;;;15.02;68.21;100133.84;4912327;28;98068;-65
2021/05/23 03:17:57;;;;;;;0.45;0.10;;;;;;;15.04;68.04;100156.03;4927148;28;98229;-65
2021/05/23 03:20:25;;;;;;;1.15;0.10;;;;;;;15.04;67.82;100153.31;4927046;28;97993;-62
2021/05/23 03:22:53;;;;;;;0.93;0.10;;;;;;;15.04;67.71;100147.91;4927096;28;97876;-62
2021/05/23 03:25:19;;;;;;;0.85;0.10;;;;;;;15.03;68.06;100151.72;4925117;28;98325;-62
2021/05/23 03:27:46;;;;;;;0.60;0.00;;;;;;;15.04;67.83;100150.63;4905528;28;98788;-62
2021/05/23 03:30:18;;;;;;;0.43;0.10;;;;;;;14.99;68.00;100148.81;4922483;28;98358;-65
2021/05/23 03:32:44;;;;;;;1.02;0.10;;;;;;;15.00;68.36;100155.84;4905248;28;97994;-62
2021/05/23 03:35:11;;;;;;;0.60;0.10;;;;;;;15.04;67.88;100153.31;4912300;28;127750;-62
2021/05/23 03:37:37;;;;;;;0.63;0.10;;;;;;;15.02;67.88;100150.94;4923997;28;99502;-65
2021/05/23 03:40:06;;;;;;;0.57;0.10;;;;;;;15.04;67.89;100156.03;4923089;28;115460;-65
2021/05/23 03:42:32;;;;;;;0.55;0.10;;;;;;;15.04;67.83;100158.75;4924732;28;97982;-65
2021/05/23 03:44:58;;;;;;;0.50;0.10;;;;;;;15.05;68.21;100161.19;4907828;28;112136;-65
2021/05/23 03:47:24;;;;;;;0.50;0.10;;;;;;;15.06;68.15;100167.41;4904990;28;104275;-65
2021/05/23 03:49:50;;;;;;;0.95;0.20;;;;;;;15.07;68.22;100171.72;4915289;28;101117;-65
2021/05/23 03:52:16;;;;;;;0.85;0.10;;;;;;;15.09;68.26;100166.78;4923579;28;97907;-62
2021/05/23 03:54:42;;;;;;;0.88;0.10;;;;;;;15.09;68.38;100174.91;4923455;28;99006;-65
2021/05/23 03:57:08;;;;;;;0.73;0.10;;;;;;;15.10;68.01;100171.13;4922125;28;129009;-65
2021/05/23 03:59:34;;;;;;;0.30;0.10;;;;;;;15.10;68.24;100171.13;4914645;28;113465;-61
2021/05/23 04:02:01;;;;;;;0.50;0.10;;;;;;;15.14;68.01;100181.06;4903458;28;116321;-62
2021/05/23 04:04:45;;;;;;;1.08;0.10;;;;;;;15.18;68.07;100184.78;4904235;28;127018;-62
2021/05/23 04:07:12;;;;;;;0.95;0.10;;;;;;;15.25;67.76;100181.66;4888727;28;98545;-65
2021/05/23 04:09:38;;;;;;;0.70;0.10;;;;;;;15.26;67.73;100185.97;4886051;28;109379;-62
2021/05/23 04:12:05;;;;;;;0.52;0.10;;;;;;;15.27;68.08;100182.13;4915370;28;97819;-66
2021/05/23 04:14:34;;;;;;;0.60;0.10;;;;;;;15.33;67.90;100183.66;4922794;28;98513;-65
2021/05/23 04:17:00;;;;;;;0.68;0.20;;;;;;;15.41;67.83;100182.91;4885035;28;128107;-62
2021/05/23 04:19:26;;;;;;;0.40;0.10;;;;;;;15.47;67.53;100187.09;4906393;28;124719;-62
2021/05/23 04:21:53;;;;;;;0.70;0.20;;;;;;;15.50;67.74;100191.13;4922683;28;117923;-62
2021/05/23 04:24:19;;;;;;;0.50;0.10;;;;;;;15.47;67.80;100191.75;4922023;28;128180;-62
2021/05/23 04:26:45;;;;;;;1.13;0.10;;;;;;;15.47;68.18;100195.25;4904492;28;128423;-65
2021/05/23 04:29:11;;;;;;;0.95;0.10;;;;;;;15.53;68.11;100200.59;4899320;28;126915;-65
2021/05/23 04:31:37;;;;;;;0.70;0.10;;;;;;;15.55;68.03;100209.22;4903774;28;117137;-61
2021/05/23 04:34:03;;;;;;;1.65;0.20;;;;;;;15.58;67.80;100211.34;4882647;28;103463;-61
2021/05/23 04:36:29;;;;;;;0.65;0.10;;;;;;;15.61;68.29;100216.16;4896361;28;128351;-65
2021/05/23 04:38:55;;;;;;;0.50;0.10;;;;;;;15.66;68.22;100227.72;4912995;28;122529;-63
2021/05/23 04:41:21;;;;;;;1.00;0.10;;;;;;;15.70;67.95;100233.34;4903279;28;118812;-64
2021/05/23 04:43:47;;;;;;;0.70;0.10;;;;;;;15.78;67.88;100235.34;4913438;28;114120;-62
2021/05/23 04:46:13;;;;;;;1.63;0.20;;;;;;;15.83;67.72;100234.41;4920909;28;128056;-64
2021/05/23 04:48:39;;;;;;;0.50;0.10;;;;;;;15.88;67.50;100237.84;4921408;28;127144;-61
2021/05/23 04:51:05;;;;;;;0.80;0.10;;;;;;;15.90;67.40;100235.59;4903214;28;117168;-61
2021/05/23 04:53:31;;;;;;;1.10;0.20;;;;;;;15.95;67.75;100248.25;4903647;28;126083;-65
2021/05/23 04:55:57;;;;;;;0.95;0.10;;;;;;;16.02;67.33;100248.63;4905183;28;128636;-61
2021/05/23 04:58:23;;;;;;;0.63;0.10;;;;;;;16.06;67.64;100244.19;4884354;28;126835;-61
2021/05/23 05:00:49;;;;;;;0.75;0.10;;;;;;;16.17;66.90;100256.41;4902177;28;117532;-61
2021/05/23 05:03:15;;;;;;;0.93;0.10;;;;;;;16.26;66.87;100256.47;4903937;28;122310;-65
2021/05/23 05:05:41;;;;;;;0.50;0.10;;;;;;;16.23;67.64;100256.28;4906895;28;127986;-61
2021/05/23 05:08:07;;;;;;;1.27;0.10;;;;;;;16.26;67.38;100258.41;4916997;28;127490;-65
2021/05/23 05:10:33;;;;;;;0.55;0.10;;;;;;;16.28;67.47;100256.97;4921977;28;117991;-64
2021/05/23 05:12:59;;;;;;;0.68;0.10;;;;;;;16.35;67.00;100267.44;4921962;28;112725;-61
2021/05/23 05:15:26;;;;;;;0.85;0.10;;;;;;;16.49;67.04;100261.91;4887249;28;127762;-61
2021/05/23 05:17:52;;;;;;;0.57;0.10;;;;;;;16.58;66.91;100260.03;4903725;28;119912;-61
2021/05/23 05:20:18;;;;;;;1.08;0.10;;;;;;;16.71;66.54;100259.16;4921285;28;97681;-66
2021/05/23 05:22:44;;;;;;;0.68;0.10;;;;;;;16.86;66.18;100257.97;4919849;28;127511;-61
2021/05/23 05:25:11;;;;;;;1.05;0.10;;;;;;;16.93;66.09;100267.25;4884348;28;125973;-62
2021/05/23 05:27:37;;;;;;;0.60;0.10;;;;;;;17.06;65.59;100275.66;4902803;28;98111;-64
2021/05/23 05:30:05;;;;;;;0.68;0.10;;;;;;;17.08;66.00;100271.47;4904562;28;98071;-65
2021/05/23 05:32:31;;;;;;;1.10;0.20;;;;;;;17.11;65.93;100273.56;4903063;28;98666;-61
2021/05/23 05:34:58;;;;;;;1.30;0.20;;;;;;;17.14;66.28;100274.88;4903094;28;98606;-65
2021/05/23 05:37:24;;;;;;;0.70;0.10;;;;;;;17.13;65.90;100276.81;4883441;28;126892;-64
2021/05/23 05:39:50;;;;;;;0.88;0.20;;;;;;;17.07;66.40;100286.22;4904364;28;97867;-65
2021/05/23 05:42:16;;;;;;;0.90;0.20;;;;;;;17.66;64.63;100278.50;4901554;28;128452;-65
2021/05/23 05:44:42;;;;;;;0.85;0.20;;;;;;;18.14;62.69;100276.78;4899867;28;99067;-65
2021/05/23 05:47:08;;;;;;;1.85;0.30;;;;;;;18.69;60.87;100281.47;4911747;28;127812;-62
2021/05/23 05:49:36;;;;;;;0.90;0.10;;;;;;;19.26;59.36;100280.31;4881440;28;117054;-62
2021/05/23 05:52:04;;;;;;;1.80;0.20;;;;;;;20.00;57.26;100267.91;4918441;28;98262;-62
2021/05/23 05:54:50;;;;;;;2.45;0.30;;;;;;;19.94;55.30;100272.00;4897291;28;98753;-65
2021/05/23 05:57:16;;;;;;;1.20;0.20;;;;;;;20.39;54.87;100274.78;4911753;28;126417;-65
2021/05/23 05:59:42;;;;;;;1.70;0.20;;;;;;;20.77;52.68;100268.28;4916989;28;116131;-62
2021/05/23 06:02:08;;;;;;;0.50;0.20;;;;;;;20.92;52.41;100278.56;4911985;28;98179;-65
2021/05/23 06:04:37;;;;;;;1.30;0.30;;;;;;;20.88;52.54;100280.41;4917437;28;126129;-62
2021/05/23 06:07:03;;;;;;;1.08;0.20;;;;;;;20.41;53.38;100275.25;4917015;28;126236;-65
2021/05/23 06:09:29;;;;;;;1.80;0.30;;;;;;;20.37;53.98;100287.22;4913403;28;118314;-62
2021/05/23 06:11:55;;;;;;;1.27;0.20;;;;;;;20.50;54.11;100292.41;4912271;28;104656;-65
2021/05/23 06:14:24;;;;;;;1.17;0.20;;;;;;;20.66;53.21;100286.28;4862159;28;100409;-66
2021/05/23 06:16:50;;;;;;;0.88;0.20;;;;;;;20.70;53.26;100285.28;4914946;28;98471;-66
2021/05/23 06:19:16;;;;;;;0.80;0.20;;;;;;;20.92;52.59;100286.00;4895080;28;118313;-62
2021/05/23 06:21:42;;;;;;;1.02;0.20;;;;;;;21.24;52.19;100289.78;4897203;28;105294;-62
2021/05/23 06:24:08;;;;;;;1.17;0.20;;;;;;;21.58;56.45;100276.75;4895826;28;128039;-62
2021/05/23 06:26:34;;;;;;;1.05;0.20;;;;;;;22.07;56.60;100288.38;4916976;28;98113;-66
2021/05/23 06:29:00;;;;;;;0.90;0.20;;;;;;;22.72;53.35;100282.72;4915086;28;116443;-62
2021/05/23 06:31:26;;;;;;;2.47;0.25;;;;;;;23.34;53.36;100289.34;4913715;28;99152;-63
2021/05/23 06:33:52;;;;;;;1.27;0.20;;;;;;;24.31;51.95;100294.97;4908126;28;128116;-63
2021/05/23 06:36:19;;;;;;;1.38;0.30;;;;;;;25.15;50.93;100291.38;4916130;28;97986;-63
2021/05/23 06:38:45;;;;;;;1.08;0.20;;;;;;;25.84;50.37;100302.25;4897738;28;117567;-66
2021/05/23 06:41:11;;;;;;;1.45;0.20;;;;;;;25.62;51.66;100300.31;4914977;28;115872;-67
2021/05/23 06:43:37;;;;;;;1.88;0.20;;;;;;;26.36;49.86;100303.25;4890944;28;127437;-63
2021/05/23 06:46:03;;;;;;;0.90;0.20;;;;;;;26.79;49.41;100302.91;4908354;28;98178;-63
2021/05/23 06:48:29;;;;;;;0.75;0.20;;;;;;;26.53;50.04;100301.09;4916947;28;102232;-63
2021/05/23 06:50:55;;;;;;;0.90;0.20;;;;;;;26.87;49.37;100307.34;4898087;28;116982;-66
2021/05/23 06:53:21;;;;;;;1.25;0.20;;;;;;;26.55;50.50;100298.75;4917662;28;98420;-63
2021/05/23 06:55:47;;;;;;;1.02;0.20;;;;;;;26.38;50.51;100306.44;4915592;28;128136;-66
2021/05/23 06:58:13;;;;;;;0.63;0.20;;;;;;;26.82;49.88;100300.19;4899338;28;97888;-66
2021/05/23 07:00:39;;;;;;;0.93;0.17;;;;;;;27.80;47.90;100316.34;4898852;28;123248;-66
2021/05/23 07:03:05;;;;;;;1.17;0.20;;;;;;;28.88;45.86;100312.72;4884768;28;110926;-63
2021/05/23 07:05:31;;;;;;;0.90;0.20;;;;;;;29.55;45.03;100316.66;4876449;28;100185;-63
2021/05/23 07:07:57;;;;;;;0.80;0.20;;;;;;;30.50;43.52;100311.19;4882039;28;116989;-65
2021/05/23 07:10:23;;;;;;;1.20;0.20;;;;;;;29.64;45.54;100314.31;4889175;28;128194;-63
2021/05/23 07:12:49;;;;;;;1.20;0.30;;;;;;;29.45;45.52;100318.28;4919467;28;127343;-63
2021/05/23 07:15:15;;;;;;;1.40;0.20;;;;;;;30.22;44.27;100309.31;4918140;28;127506;-63
2021/05/23 07:17:42;;;;;;;0.80;0.10;;;;;;;30.63;43.08;100315.03;4918264;28;117916;-63
2021/05/23 07:20:09;;;;;;;0.90;0.20;;;;;;;31.36;41.81;100316.09;4916019;28;98548;-64
2021/05/23 07:22:35;;;;;;;1.20;0.20;;;;;;;31.90;40.89;100322.69;4917186;28;98136;-67
2021/05/23 07:25:01;;;;;;;1.55;0.20;;;;;;;32.66;39.63;100317.72;4900478;28;127176;-64
2021/05/23 07:27:27;;;;;;;0.93;0.10;;;;;;;32.90;39.01;100310.16;4919084;28;114236;-68
2021/05/23 07:29:53;;;;;;;0.95;0.17;;;;;;;32.42;40.09;100308.50;4902027;28;116750;-67
2021/05/23 07:32:19;;;;;;;0.80;0.20;;;;;;;32.87;39.63;100310.22;4918858;28;126058;-64
2021/05/23 07:34:45;;;;;;;0.90;0.20;;;;;;;33.20;38.77;100303.66;4902100;28;127941;-67
2021/05/23 07:37:11;;;;;;;1.42;0.20;;;;;;;32.63;40.19;100303.81;4920497;28;101645;-67
2021/05/23 07:39:37;;;;;;;1.00;0.20;;;;;;;33.36;39.16;100305.78;4902126;28;99751;-68
2021/05/23 07:42:03;;;;;;;0.90;0.20;;;;;;;34.10;37.01;100297.19;4921228;28;109100;-69
2021/05/23 07:44:29;;;;;;;1.08;0.20;;;;;;;34.52;36.94;100307.88;4899446;28;108635;-65
2021/05/23 07:46:55;;;;;;;1.30;0.20;;;;;;;35.10;36.12;100302.50;4895108;28;115780;-68
2021/05/23 07:49:21;;;;;;;0.95;0.20;;;;;;;35.76;34.63;100300.31;4897287;28;127950;-69
2021/05/23 07:51:47;;;;;;;1.40;0.20;;;;;;;36.14;33.48;100308.81;4897095;28;98432;-65
2021/05/23 07:54:14;;;;;;;0.73;0.20;;;;;;;36.86;32.76;100321.41;4888624;28;128408;-69
2021/05/23 07:56:44;;;;;;;1.52;0.13;;;;;;;37.48;31.84;100312.53;4919564;28;98140;-69
2021/05/23 07:59:10;;;;;;;0.90;0.20;;;;;;;38.13;30.80;100311.75;4917618;28;98216;-69
2021/05/23 08:01:36;;;;;;;0.55;0.10;;;;;;;38.31;30.28;100317.44;4901178;28;98819;-69
2021/05/23 08:04:03;;;;;;;0.55;0.10;;;;;;;37.66;32.21;100321.09;4915986;28;98368;-69
2021/05/23 08:06:31;;;;;;;0.95;0.20;;;;;;;39.02;29.57;100316.59;4917899;28;98102;-65
2021/05/23 08:08:57;;;;;;;0.82;0.20;;;;;;;37.62;32.00;100300.78;4919774;28;98707;-69
2021/05/23 08:11:23;;;;;;;0.82;0.20;;;;;;;38.89;29.89;100313.16;4899905;28;100142;-69
2021/05/23 08:13:49;;;;;;;1.08;0.20;;;;;;;39.60;28.80;100298.03;4919106;28;98242;-66
2021/05/23 08:16:15;;;;;;;1.13;0.20;;;;;;;40.37;27.74;100311.81;4919521;28;117800;-67
2021/05/23 08:18:41;;;;;;;0.98;0.30;;;;;;;40.99;27.04;100312.44;4914164;28;102330;-63
2021/05/23 08:21:07;;;;;;;0.93;0.30;;;;;;;41.63;26.41;100314.78;4875572;28;123493;-67
2021/05/23 08:23:35;;;;;;;1.35;0.10;;;;;;;39.93;28.76;100309.44;4906956;28;98263;-62
2021/05/23 08:26:01;;;;;;;0.77;0.13;;;;;;;37.07;33.14;100301.06;4881981;28;99013;-66
2021/05/23 08:28:30;;;;;;;0.82;0.10;;;;;;;35.77;34.90;100297.06;4900076;28;128119;-62
2021/05/23 08:30:56;;;;;;;1.13;0.20;;;;;;;35.64;34.76;100296.22;4869663;28;98451;-62
2021/05/23 08:33:22;;;;;;;0.77;0.20;;;;;;;35.90;34.04;100303.50;4893417;28;111784;-67
2021/05/23 08:35:48;;;;;;;0.70;0.10;;;;;;;35.58;34.47;100304.41;4893465;28;118036;-62
2021/05/23 08:38:14;;;;;;;1.35;0.20;;;;;;;33.73;37.56;100309.50;4898615;28;98722;-62
2021/05/23 08:40:41;;;;;;;1.08;0.20;;;;;;;32.78;39.01;100309.94;4916463;28;99271;-62
2021/05/23 08:43:09;;;;;;;0.95;0.20;;;;;;;31.45;40.53;100316.41;4901853;28;98193;-69
2021/05/23 08:45:36;;;;;;;0.73;0.20;;;;;;;34.94;34.29;100311.66;4918988;28;98201;-64
2021/05/23 08:48:02;;;;;;;1.08;0.20;;;;;;;35.06;33.99;100310.19;4897327;28;99072;-67
2021/05/23 08:50:28;;;;;;;1.95;0.20;;;;;;;37.38;30.60;100314.47;4914750;28;107139;-67
2021/05/23 08:52:56;;;;;;;0.40;0.10;;;;;;;38.14;29.49;100323.78;4919782;28;97975;-63
2021/05/23 08:55:22;;;;;;;1.00;0.20;;;;;;;38.74;29.38;100306.50;4882935;28;97943;-62
2021/05/23 08:57:53;;;;;;;0.70;0.20;;;;;;;39.88;27.52;100314.91;4901313;28;98720;-67
2021/05/23 09:00:20;;;;;;;1.02;0.20;;;;;;;41.36;25.55;100325.03;4919159;28;98811;-63
2021/05/23 09:02:57;;;;;;;0.68;0.10;;;;;;;43.00;23.87;100315.19;4918221;28;99112;-67
2021/05/23 09:05:49;;;;;;;0.50;0.20;;;;;;;42.82;24.17;100315.47;4918871;28;97913;-63
2021/05/23 09:08:21;;;;;;;0.50;0.10;;;;;;;39.12;28.79;100302.56;4918638;28;98347;-67
2021/05/23 09:10:51;;;;;;;0.85;0.10;;;;;;;36.35;33.35;100302.56;4916356;28;98347;-67
2021/05/23 09:13:36;;;;;;;1.10;0.10;;;;;;;34.24;37.10;100309.28;4919519;28;98384;-68
2021/05/23 09:16:06;;;;;;;1.50;0.10;;;;;;;32.78;38.41;100302.38;4901422;28;98760;-66
2021/05/23 09:18:51;;;;;;;1.17;0.10;;;;;;;31.30;40.30;100301.84;4919519;28;100036;-66
2021/05/23 09:21:22;;;;;;;1.58;0.10;;;;;;;31.98;38.88;100303.88;4901561;28;98696;-67
2021/05/23 09:24:03;;;;;;;1.27;0.20;;;;;;;30.79;41.65;100309.78;4916591;28;98198;-67
2021/05/23 09:26:33;;;;;;;;;;;;;;;30.05;42.45;100311.75;4901991;28;106439;-61
2021/05/23 09:29:20;;;;;;;1.15;0.10;;;;;;;28.95;43.88;100317.47;4895033;28;99330;-66
2021/05/23 09:32:02;;;;;;;1.75;0.10;;;;;;;28.04;45.84;100328.72;4911702;28;98336;-66
2021/05/23 09:34:29;;;;;;;1.40;0.10;;;;;;;27.33;46.85;100331.84;4910664;28;98004;-65
2021/05/23 09:36:55;;;;;;;1.17;0.10;;;;;;;26.90;47.17;100331.47;4916966;28;97837;-65
2021/05/23 09:39:28;;;;;;;0.73;0.20;;;;;;;30.16;41.14;100317.31;4916693;28;102322;-62
2021/05/23 09:42:03;;;;;;;0.90;0.20;;;;;;;33.09;34.98;100336.59;4892150;28;114228;-66
2021/05/23 09:44:29;;;;;;;1.00;0.13;;;;;;;33.06;35.73;100340.22;4912359;28;98026;-66
2021/05/23 09:47:09;;;;;;;0.50;0.10;;;;;;;32.24;37.91;100333.03;4911919;28;97986;-66
2021/05/23 09:49:45;;;;;;;2.05;0.13;;;;;;;32.88;36.70;100325.75;4883897;28;100613;-66
2021/05/23 09:52:16;;;;;;;1.85;0.20;;;;;;;35.43;32.55;100320.00;4902285;28;98284;-62
2021/05/23 09:54:52;;;;;;;;;;;;;;;33.03;37.42;100329.13;4893750;28;117800;-61
2021/05/23 09:57:20;;;;;;;0.52;0.10;;;;;;;31.44;40.33;100329.53;4901371;28;98727;-66
2021/05/23 09:59:46;;;;;;;0.90;0.20;;;;;;;33.26;36.78;100328.34;4905904;28;118828;-62
2021/05/23 10:02:13;;;;;;;0.60;0.20;;;;;;;36.42;30.74;100340.03;4918601;28;106699;-62
2021/05/23 10:04:40;;;;;;;0.70;0.10;;;;;;;37.97;28.66;100357.75;4915272;28;98789;-67
2021/05/23 10:07:13;;;;;;;0.52;0.10;;;;;;;34.23;35.20;100353.22;4918037;28;98095;-62
2021/05/23 10:09:40;;;;;;;0.63;0.10;;;;;;;32.45;38.55;100354.28;4882773;28;116747;-66
2021/05/23 10:12:09;;;;;;;1.13;0.10;;;;;;;33.84;35.44;100349.22;4899357;28;98632;-66
2021/05/23 10:14:35;;;;;;;0.65;0.10;;;;;;;32.98;36.99;100356.31;4916187;28;98512;-61
2021/05/23 10:17:01;;;;;;;0.75;0.10;;;;;;;31.49;40.47;100347.78;4918900;28;97780;-61
2021/05/23 10:19:30;;;;;;;0.40;0.10;;;;;;;30.23;42.64;100347.84;4892674;28;97918;-66
2021/05/23 10:21:58;;;;;;;0.60;0.10;;;;;;;29.42;43.57;100349.59;4912237;28;98542;-66
2021/05/23 10:24:41;;;;;;;0.82;0.10;;;;;;;28.98;44.84;100353.56;4915651;28;98065;-62
2021/05/23 10:27:10;;;;;;;0.60;0.20;;;;;;;30.53;40.66;100354.81;4902727;28;101894;-67
2021/05/23 10:29:38;;;;;;;0.80;0.10;;;;;;;32.37;37.42;100359.13;4884340;28;99245;-68
2021/05/23 10:32:07;;;;;;;0.50;0.10;;;;;;;35.31;32.33;100357.94;4911205;28;99290;-67
2021/05/23 10:34:38;;;;;;;1.42;0.20;;;;;;;38.07;28.88;100373.41;4910353;28;98634;-68
2021/05/23 10:37:04;;;;;;;2.63;0.20;;;;;;;39.76;27.15;100373.84;4915638;28;98071;-67
2021/05/23 10:39:59;;;;;;;1.27;0.20;;;;;;;40.31;27.17;100375.03;4918016;28;98296;-63
2021/05/23 10:42:28;;;;;;;0.75;0.10;;;;;;;37.25;31.70;100369.88;4903676;28;127443;-68
2021/05/23 10:44:56;;;;;;;1.42;0.30;;;;;;;35.41;34.20;100365.28;4895010;28;98178;-67
2021/05/23 10:47:34;;;;;;;0.95;0.10;;;;;;;34.16;36.37;100358.97;4920064;28;98111;-68
2021/05/23 10:50:08;;;;;;;0.63;0.10;;;;;;;34.65;35.46;100356.31;4915680;28;99525;-67
2021/05/23 10:52:36;;;;;;;1.23;0.10;;;;;;;38.29;28.21;100370.59;4904025;28;98494;-67
2021/05/23 10:55:12;;;;;;;0.65;0.10;;;;;;;37.22;30.99;100374.41;4919327;28;98222;-68
2021/05/23 10:57:49;;;;;;;0.85;0.10;;;;;;;38.39;28.86;100376.28;4920939;28;98116;-68
2021/05/23 11:00:27;;;;;;;0.52;0.10;;;;;;;35.88;33.15;100372.44;4913419;28;98890;-68
2021/05/23 11:02:54;;;;;;;0.40;0.10;;;;;;;34.21;36.01;100366.84;4912995;28;99026;-63
2021/05/23 11:05:26;;;;;;;0.50;0.10;;;;;;;32.38;39.18;100373.84;4920680;28;97864;-63
2021/05/23 11:08:04;;;;;;;1.50;0.10;;;;;;;31.43;41.04;100374.47;4922334;28;98148;-62
2021/05/23 11:10:39;;;;;;;0.52;0.10;;;;;;;32.29;39.04;100365.22;4913210;28;98252;-67
2021/05/23 11:13:05;;;;;;;0.82;0.10;;;;;;;34.74;33.25;100381.69;4915133;28;99338;-62
2021/05/23 11:15:45;;;;;;;0.70;0.20;;;;;;;37.52;29.67;100389.06;4896383;28;98257;-67
2021/05/23 11:18:20;;;;;;;1.25;0.10;;;;;;;35.23;33.90;100394.97;4900370;28;97899;-67
2021/05/23 11:21:08;;;;;;;0.50;0.10;;;;;;;33.96;36.14;100393.28;4884147;28;100128;-62
2021/05/23 11:23:50;;;;;;;0.68;0.10;;;;;;;34.25;35.86;100395.53;4914567;28;100771;-67
2021/05/23 11:26:16;;;;;;;0.60;0.10;;;;;;;36.24;32.07;100402.31;4902747;28;98100;-62
2021/05/23 11:28:53;;;;;;;0.85;0.10;;;;;;;35.70;33.26;100400.19;4918427;28;98322;-67